Latest Weather Observations for Tibooburra Airport

IDN60801

Issued at 4:52 pm EST Friday 1 July 2022 (issued every 10 minutes, with the page automatically refreshed every 10 minutes)

About weather observations | Map of weather stations | Latest weather observations for NSW | Other Formats
Station Details ID: 046126 Name: TIBOOBURRA AIRPORT Lat: -29.44 Lon: 142.06 Height: 176.4 m
Data from the previous 72 hours. | See also: Recent months at Tibooburra Airport
Date/Time
EST
Temp
°C
App
Temp
°C
Dew
Point
°C
Rel
Hum
%
Delta-T
°C
Wind Press
QNH
hPa
Press
MSL
hPa
Rain since
9am
mm
Dir  Spd
km/h
Gust
km/h
Spd
kts
Gust
kts
01/04:30pm 14.5 8.8 4.8 52 4.6 SSE 24 37 13 20 1025.3 1025.4 0.0
01/04:00pm 14.2 8.5 4.8 53 4.4 SSE 24 33 13 18 1025.2 1025.3 0.0
01/03:30pm 14.2 8.4 6.3 59 3.8 SSE 26 35 14 19 1025.5 1025.6 0.0
01/03:00pm 13.6 7.7 6.0 60 3.6 SSE 26 35 14 19 1025.7 1025.8 0.0
01/02:30pm 13.6 7.8 6.2 61 3.6 SSE 26 33 14 18 1025.7 1025.8 0.0
01/02:00pm 13.3 7.1 6.2 62 3.4 SSE 28 35 15 19 1025.8 1025.9 0.0
01/01:30pm 12.7 7.2 6.1 64 3.1 SSE 24 33 13 18 1026.0 1026.1 0.0
01/01:00pm 12.5 6.7 6.1 65 3.0 SSE 26 35 14 19 1026.4 1026.5 0.0
01/12:30pm 12.3 7.2 6.1 66 2.9 SSE 22 28 12 15 1026.6 1026.7 0.0
01/12:00pm 11.5 6.0 5.8 68 2.7 S 24 30 13 16 1026.9 1027.0 0.0
01/11:30am 11.4 6.3 5.9 69 2.6 SSE 22 30 12 16 1027.0 1027.1 0.0
01/11:00am 10.4 5.3 6.0 74 2.0 SSE 22 30 12 16 1026.8 1026.9 0.0
01/10:30am 10.1 4.9 5.7 74 2.0 SSE 22 30 12 16 1027.1 1027.2 0.0
01/10:00am 9.7 4.6 6.1 78 1.7 SSE 22 28 12 15 1027.0 1027.1 0.0
01/09:30am 9.4 4.4 6.3 81 1.4 S 22 30 12 16 1027.0 1027.1 0.0
01/09:00am 8.7 4.1 6.5 86 1.0 S 20 28 11 15 1027.0 1027.1 0.0
01/08:30am 8.0 4.0 6.6 91 0.7 S 17 22 9 12 1026.5 1026.6 0.0
01/08:00am 7.5 3.4 6.3 92 0.5 S 17 20 9 11 1026.4 1026.5 0.0
01/07:30am 7.6 3.5 6.2 91 0.6 S 17 20 9 11 1025.8 1025.8 0.0
01/07:00am 7.8 4.1 6.3 90 0.7 S 15 20 8 11 1025.6 1025.6 0.0
01/06:30am 8.0 4.3 6.3 89 0.8 S 15 20 8 11 1025.4 1025.4 0.0
01/06:00am 7.8 4.1 6.1 89 0.8 S 15 19 8 10 1025.1 1025.1 0.0
01/05:30am 8.0 4.3 6.1 88 0.9 S 15 20 8 11 1025.3 1025.3 0.0
01/05:00am 7.8 4.8 5.9 88 0.9 S 11 15 6 8 1025.2 1025.2 0.0
01/04:30am 8.1 3.9 5.9 86 1.0 S 17 20 9 11 1025.1 1025.1 0.0
01/04:00am 7.9 4.1 5.9 87 0.9 SSW 15 19 8 10 1025.1 1025.1 0.0
01/03:30am 7.6 4.1 5.6 87 0.9 SSW 13 15 7 8 1025.4 1025.4 0.0
01/03:00am 7.1 3.5 5.1 87 0.9 SW 13 15 7 8 1025.1 1025.1 0.0
01/02:30am 7.1 4.2 4.6 84 1.1 WSW 9 13 5 7 1024.8 1024.8 0.0
01/02:00am 7.8 4.2 5.1 83 1.2 S 13 15 7 8 1025.0 1025.0 0.0
01/01:30am 7.9 4.7 5.0 82 1.3 S 11 13 6 7 1025.1 1025.1 0.0
01/01:00am 8.5 5.0 5.3 80 1.4 S 13 15 7 8 1024.8 1024.8 0.0
01/12:30am 8.9 5.4 5.3 78 1.6 S 13 17 7 9 1024.9 1024.9 0.0
01/12:00am 9.2 4.8 5.0 75 1.9 S 17 19 9 10 1025.3 1025.3 0.0
 
Date/Time
EST
Temp
°C
App
Temp
°C
Dew
Point
°C
Rel
Hum
%
Delta-T
°C
Wind Press
QNH
hPa
Press
MSL
hPa
Rain since
9am
mm
Dir  Spd
km/h
Gust
km/h
Spd
kts
Gust
kts
30/11:30pm 8.7 5.0 4.3 74 2.0 SSW 13 13 7 7 1025.3 1025.3 0.0
30/11:00pm 9.1 5.4 4.3 72 2.1 S 13 17 7 9 1025.2 1025.2 0.0
30/10:30pm 9.4 5.7 4.4 71 2.2 SSW 13 15 7 8 1024.9 1024.9 0.0
30/10:00pm 10.4 6.4 4.8 68 2.5 S 15 19 8 10 1024.9 1024.9 0.0
30/09:30pm 10.2 6.1 4.6 68 2.5 SSW 15 19 8 10 1024.7 1024.7 0.0
30/09:00pm 10.2 6.5 4.6 68 2.5 SW 13 15 7 8 1024.7 1024.7 0.0
30/08:30pm 10.5 7.1 4.2 65 2.8 SSW 11 11 6 6 1024.3 1024.3 0.0
30/08:00pm 11.4 8.1 4.4 62 3.2 SSW 11 13 6 7 1024.0 1024.0 0.0
30/07:30pm 11.5 8.0 3.5 58 3.6 SSW 11 13 6 7 1023.8 1023.8 0.0
30/07:00pm 11.4 7.7 2.4 54 3.9 SSW 11 11 6 6 1023.3 1023.3 0.0
30/06:30pm 12.5 8.8 2.4 50 4.4 S 11 13 6 7 1022.8 1022.8 0.0
30/06:00pm 14.0 9.6 2.6 46 5.1 S 15 19 8 10 1022.5 1022.5 0.0
30/05:30pm 15.1 10.1 1.6 40 6.0 S 17 24 9 13 1022.2 1022.2 0.0
30/05:00pm 15.8 10.1 0.8 36 6.5 S 20 28 11 15 1021.9 1022.0 0.0
30/04:30pm 16.5 10.7 -0.2 32 7.2 S 20 26 11 14 1021.8 1021.9 0.0
30/04:00pm 16.4 10.5 -0.8 31 7.3 S 20 26 11 14 1021.9 1022.0 0.0
30/03:30pm 16.7 11.1 -0.1 32 7.3 S 19 28 10 15 1022.0 1022.1 0.0
30/03:00pm 16.9 11.4 0.5 33 7.2 S 19 28 10 15 1022.0 1022.1 0.0
30/02:30pm 16.8 11.3 1.7 36 6.8 S 20 26 11 14 1021.9 1022.0 0.0
30/02:00pm 16.2 10.1 0.7 35 6.8 SSW 22 30 12 16 1022.0 1022.1 0.0
30/01:30pm 16.4 11.4 3.8 43 5.9 S 19 28 10 15 1022.4 1022.4 0.0
30/01:00pm 16.2 11.8 4.9 47 5.4 S 17 24 9 13 1022.8 1022.8 0.0
30/12:30pm 15.5 11.5 5.1 50 5.0 S 15 20 8 11 1023.0 1023.0 0.0
30/12:00pm 15.0 10.6 5.0 51 4.7 S 17 20 9 11 1023.5 1023.5 0.0
30/11:30am 14.5 10.8 4.5 51 4.7 S 13 19 7 10 1023.7 1023.7 0.0
30/11:00am 13.9 9.8 4.5 53 4.4 S 15 20 8 11 1024.0 1024.0 0.0
30/10:30am 13.5 9.4 4.4 54 4.2 SSE 15 19 8 10 1024.2 1024.2 0.0
30/10:00am 12.5 8.5 5.0 60 3.5 S 15 20 8 11 1024.1 1024.1 0.0
30/09:30am 10.9 7.0 5.2 68 2.6 SSW 15 19 8 10 1024.0 1024.0 0.0
30/09:00am 9.6 6.4 5.0 73 2.1 SW 11 15 6 8 1023.9 1023.9 0.0
30/08:30am 8.1 5.2 4.7 79 1.5 SW 9 13 5 7 1023.6 1023.6 0.0
30/08:00am 7.1 4.2 4.4 83 1.2 WSW 9 11 5 6 1023.3 1023.3 0.0
30/07:30am 6.5 3.5 4.0 84 1.1 SW 9 11 5 6 1023.2 1023.2 0.0
30/07:00am 6.6 3.6 3.9 83 1.2 SW 9 11 5 6 1022.7 1022.7 0.0
30/06:30am 7.7 4.8 4.7 81 1.3 S 9 9 5 5 1022.4 1022.4 0.0
30/06:00am 7.8 4.9 4.6 80 1.4 SSW 9 11 5 6 1022.0 1022.1 0.0
30/05:30am 8.9 5.7 5.1 77 1.7 SSW 11 15 6 8 1021.8 1021.9 0.0
30/05:00am 8.8 4.9 5.2 78 1.6 SW 15 19 8 10 1021.9 1022.0 0.0
30/04:30am 8.6 4.6 5.0 78 1.6 SW 15 20 8 11 1022.2 1022.2 0.0
30/04:00am 8.3 4.7 4.9 79 1.5 SW 13 15 7 8 1022.3 1022.3 0.0
30/03:30am 8.2 4.6 4.8 79 1.5 SW 13 15 7 8 1022.4 1022.4 0.0
30/03:00am 8.6 4.6 4.8 77 1.7 WSW 15 15 8 8 1022.5 1022.5 0.0
30/02:30am 9.2 6.0 5.0 75 1.9 SW 11 15 6 8 1022.5 1022.5 0.0
30/02:00am 9.9 6.4 5.3 73 2.1 SW 13 17 7 9 1022.4 1022.4 0.0
30/01:30am 10.2 6.7 5.4 72 2.2 SW 13 17 7 9 1022.4 1022.4 0.0
30/01:00am 10.4 6.9 5.6 72 2.2 WSW 13 15 7 8 1022.0 1022.1 0.0
30/12:30am 10.4 7.7 5.4 71 2.3 WSW 9 13 5 7 1021.8 1021.9 0.0
30/12:00am 10.4 8.0 5.2 70 2.4 WSW 7 11 4 6 1021.6 1021.7 0.0
 
Date/Time
EST
Temp
°C
App
Temp
°C
Dew
Point
°C
Rel
Hum
%
Delta-T
°C
Wind Press
QNH
hPa
Press
MSL
hPa
Rain since
9am
mm
Dir  Spd
km/h
Gust
km/h
Spd
kts
Gust
kts
29/11:30pm 10.4 7.3 5.4 71 2.3 SSW 11 11 6 6 1021.5 1021.6 0.0
29/11:00pm 10.5 8.3 5.3 70 2.4 S 6 7 3 4 1021.7 1021.8 0.0
29/10:30pm 10.7 7.9 5.3 69 2.5 SSW 9 11 5 6 1021.6 1021.7 0.0
29/10:00pm 11.2 8.8 5.3 67 2.7 SW 7 9 4 5 1021.8 1021.9 0.0
29/09:30pm 11.5 9.3 5.4 66 2.8 SSW 6 9 3 5 1021.7 1021.8 0.0
29/09:00pm 11.7 8.5 5.3 65 3.0 SSE 11 15 6 8 1021.2 1021.2 0.0
29/08:30pm 11.7 8.8 4.9 63 3.1 ESE 9 15 5 8 1021.4 1021.5 0.0
29/08:00pm 11.6 8.7 4.8 63 3.1 E 9 13 5 7 1021.4 1021.5 0.0
29/07:30pm 12.2 9.3 4.9 61 3.4 ESE 9 13 5 7 1021.9 1022.0 0.0
29/07:00pm 12.7 9.8 4.9 59 3.6 SSE 9 11 5 6 1022.0 1022.1 0.0
29/06:30pm 13.0 9.7 4.7 57 3.9 SSE 11 15 6 8 1021.5 1021.6 0.0
29/06:00pm 13.4 9.7 4.6 55 4.1 SSE 13 17 7 9 1021.4 1021.5 0.0
29/05:30pm 13.9 11.0 4.5 53 4.4 SSE 9 13 5 7 1021.9 1022.0 0.0
29/05:00pm 14.5 11.6 4.8 52 4.5 S 9 13 5 7 1022.0 1022.1 0.0
29/04:30pm 14.8 12.6 5.1 52 4.6 SSE 6 9 3 5 1022.0 1022.1 0.0
29/04:00pm 15.0 12.7 4.7 50 4.8 SW 6 7 3 4 1021.6 1021.7 0.0
29/03:30pm 15.0 13.1 4.7 50 4.9 E 4 7 2 4 1021.5 1021.6 0.0
29/03:00pm 15.0 12.5 4.7 50 4.8 E 7 11 4 6 1021.5 1021.6 0.0
29/02:30pm 14.9 12.0 4.6 50 4.8 SE 9 13 5 7 1021.3 1021.3 0.0
29/02:00pm 14.8 11.9 4.5 50 4.8 SSE 9 13 5 7 1021.5 1021.6 0.0
29/01:30pm 14.7 12.8 5.0 52 4.6 S 4 9 2 5 1022.2 1022.2 0.0
29/01:00pm 14.9 12.7 5.1 52 4.6 E 6 11 3 6 1022.9 1022.9 0.0
29/12:30pm 13.9 11.6 5.0 55 4.2 E 6 9 3 5 1023.3 1023.3 0.0
29/12:00pm 13.7 11.8 5.1 56 4.0 E 4 9 2 5 1023.7 1023.7 0.0
29/11:30am 12.9 10.4 4.6 57 3.8 E 7 13 4 7 1024.0 1024.0 0.0
29/11:00am 12.5 11.0 5.0 60 3.5 E 2 9 1 5 1024.7 1024.7 0.0
29/10:30am 10.5 8.5 4.2 65 2.8 SE 4 7 2 4 1024.6 1024.6 0.0
29/10:00am 9.5 8.1 3.7 67 2.5 CALM 0 0 0 0 1024.6 1024.6 0.0
29/09:30am 8.7 6.2 3.5 70 2.3 S 6 7 3 4 1024.5 1024.5 0.0
29/09:00am 8.4 7.0 3.3 70 2.2 CALM 0 0 0 0 1024.3 1024.3 0.0
29/08:30am 7.5 4.9 3.0 73 1.9 WSW 6 7 3 4 1024.1 1024.1 0.0
29/08:00am 6.0 3.6 2.1 76 1.6 WSW 4 7 2 4 1024.0 1024.0 0.0
29/07:30am 6.2 4.5 1.9 74 1.8 CALM 0 0 0 0 1024.1 1024.1 0.0
29/07:00am 6.2 3.4 1.9 74 1.7 SSE 6 7 3 4 1023.9 1023.9 0.0
29/06:30am 6.2 3.2 1.9 74 1.8 S 7 9 4 5 1023.7 1023.7 0.0
29/06:00am 5.9 2.9 1.8 75 1.7 SSE 7 9 4 5 1023.7 1023.7 0.0
29/05:30am 5.9 2.5 1.6 74 1.7 SW 9 9 5 5 1024.0 1024.0 0.0
29/05:00am 5.9 3.8 1.4 73 1.8 SE 2 6 1 3 1023.9 1023.9 0.0
29/04:30am 6.7 3.7 1.8 71 2.0 ESE 7 9 4 5 1023.7 1023.7 0.0
29/04:00am 7.0 3.6 2.1 71 2.0 SE 9 9 5 5 1024.0 1024.0 0.0
29/03:30am 7.1 3.7 2.0 70 2.1 ESE 9 11 5 6 1023.9 1023.9 0.0
29/03:00am 7.2 3.0 1.9 69 2.2 ESE 13 17 7 9 1023.8 1023.8 0.0
29/02:30am 7.3 3.2 2.0 69 2.2 E 13 15 7 8 1024.1 1024.1 0.0
29/02:00am 7.2 3.0 1.9 69 2.2 ESE 13 15 7 8 1024.3 1024.3 0.0
29/01:30am 6.6 2.8 1.5 70 2.1 ESE 11 13 6 7 1024.4 1024.4 0.0
29/01:00am 6.5 2.2 1.2 69 2.1 E 13 15 7 8 1024.5 1024.5 0.0
29/12:30am 7.0 2.8 1.5 68 2.2 E 13 15 7 8 1024.8 1024.8 0.0
29/12:00am 6.9 1.9 1.4 68 2.2 E 17 19 9 10 1024.9 1024.9 0.0
 
Date/Time
EST
Temp
°C
App
Temp
°C
Dew
Point
°C
Rel
Hum
%
Delta-T
°C
Wind Press
QNH
hPa
Press
MSL
hPa
Rain since
9am
mm
Dir  Spd
km/h
Gust
km/h
Spd
kts
Gust
kts
28/11:30pm 7.3 3.1 1.4 66 2.4 E 13 15 7 8 1025.4 1025.4 0.0
28/11:00pm 8.0 4.2 1.6 64 2.6 ESE 11 13 6 7 1025.7 1025.7 0.0
28/10:30pm 8.4 4.6 1.6 62 2.8 ESE 11 15 6 8 1025.9 1025.9 0.0
28/10:00pm 9.4 5.6 1.6 58 3.2 ESE 11 15 6 8 1025.8 1025.8 0.0
28/09:30pm 10.2 5.9 1.3 54 3.7 SE 13 15 7 8 1025.9 1025.9 0.0
28/09:00pm 10.2 - - - - SSE 11 13 6 7 1026.2 1026.3 0.0
28/08:30pm 10.1 7.1 2.0 57 3.4 SSW 7 11 4 6 1026.3 1026.4 0.0
28/08:00pm 11.0 6.8 1.8 53 3.9 SE 13 17 7 9 1026.0 1026.0 0.0
28/07:30pm 10.5 6.8 2.4 57 3.5 SSE 11 13 6 7 1026.2 1026.3 0.0
28/07:00pm 11.1 7.8 2.7 56 3.6 SSE 9 11 5 6 1026.2 1026.3 0.0
28/06:30pm 11.7 8.9 3.0 55 3.8 SSE 7 11 4 6 1026.2 1026.3 0.0
28/06:00pm 12.1 9.2 2.8 53 4.1 SSE 7 11 4 6 1026.0 1026.0 0.0
28/05:30pm 13.1 9.9 3.2 51 4.4 ESE 9 13 5 7 1025.8 1025.8 0.0
28/05:00pm 13.9 9.9 3.1 48 4.8 ESE 13 15 7 8 1025.7 1025.7 0.0

Other formats

Comma delimited format used in spreadsheet applications
http://www.bom.gov.au/fwo/IDN60801/IDN60801.95485.axf

JavaScript Object Notation format (JSON) in row-major order
http://www.bom.gov.au/fwo/IDN60801/IDN60801.95485.json

Data quality

Most of these data are generated automatically and are frequently updated. Quality checks on data are not normally performed. It is possible for incorrect values to appear. Refer to information at About Latest Weather Observations and please check the disclaimer before using these data.